sensor_id;sensor_type;location;lat;lon;timestamp;P1;durP1;ratioP1;P2;durP2;ratioP2
9178;SDS011;4624;48.126;11.546;2023-03-20T00:01:04;2.13;;;1.43;;
9178;SDS011;4624;48.126;11.546;2023-03-20T00:03:35;2.30;;;2.10;;
9178;SDS011;4624;48.126;11.546;2023-03-20T00:06:02;1.73;;;1.63;;
9178;SDS011;4624;48.126;11.546;2023-03-20T00:08:29;2.50;;;1.70;;
9178;SDS011;4624;48.126;11.546;2023-03-20T00:10:56;1.77;;;1.67;;
9178;SDS011;4624;48.126;11.546;2023-03-20T00:13:25;1.90;;;1.80;;
9178;SDS011;4624;48.126;11.546;2023-03-20T00:15:53;2.00;;;1.60;;
9178;SDS011;4624;48.126;11.546;2023-03-20T00:18:20;2.07;;;1.60;;
9178;SDS011;4624;48.126;11.546;2023-03-20T00:20:49;1.67;;;1.57;;
9178;SDS011;4624;48.126;11.546;2023-03-20T00:23:17;2.43;;;1.77;;
9178;SDS011;4624;48.126;11.546;2023-03-20T00:25:44;2.57;;;1.60;;
9178;SDS011;4624;48.126;11.546;2023-03-20T00:28:34;1.97;;;1.40;;
9178;SDS011;4624;48.126;11.546;2023-03-20T00:31:05;1.50;;;1.40;;
9178;SDS011;4624;48.126;11.546;2023-03-20T00:33:46;1.53;;;1.43;;
9178;SDS011;4624;48.126;11.546;2023-03-20T00:36:13;2.43;;;1.60;;
9178;SDS011;4624;48.126;11.546;2023-03-20T00:38:40;3.20;;;1.50;;
9178;SDS011;4624;48.126;11.546;2023-03-20T00:41:11;1.43;;;1.27;;
9178;SDS011;4624;48.126;11.546;2023-03-20T00:43:48;1.47;;;1.37;;
9178;SDS011;4624;48.126;11.546;2023-03-20T00:46:17;2.30;;;1.40;;
9178;SDS011;4624;48.126;11.546;2023-03-20T00:48:44;1.60;;;1.50;;
9178;SDS011;4624;48.126;11.546;2023-03-20T00:51:12;1.70;;;1.30;;
9178;SDS011;4624;48.126;11.546;2023-03-20T00:53:38;1.30;;;1.20;;
9178;SDS011;4624;48.126;11.546;2023-03-20T00:56:05;2.60;;;1.37;;
9178;SDS011;4624;48.126;11.546;2023-03-20T00:58:48;2.97;;;1.53;;
9178;SDS011;4624;48.126;11.546;2023-03-20T01:01:15;1.50;;;1.40;;
9178;SDS011;4624;48.126;11.546;2023-03-20T01:03:42;1.23;;;1.00;;
9178;SDS011;4624;48.126;11.546;2023-03-20T01:06:09;2.80;;;1.43;;
9178;SDS011;4624;48.126;11.546;2023-03-20T01:08:38;1.37;;;1.10;;
9178;SDS011;4624;48.126;11.546;2023-03-20T01:11:05;1.20;;;1.10;;
9178;SDS011;4624;48.126;11.546;2023-03-20T01:13:32;1.33;;;1.23;;
9178;SDS011;4624;48.126;11.546;2023-03-20T01:16:00;0.97;;;0.97;;
9178;SDS011;4624;48.126;11.546;2023-03-20T01:18:26;2.30;;;1.30;;
9178;SDS011;4624;48.126;11.546;2023-03-20T01:20:53;1.43;;;1.33;;
9178;SDS011;4624;48.126;11.546;2023-03-20T01:23:20;1.60;;;0.93;;
9178;SDS011;4624;48.126;11.546;2023-03-20T01:25:48;1.20;;;1.10;;
9178;SDS011;4624;48.126;11.546;2023-03-20T01:28:16;1.40;;;1.20;;
9178;SDS011;4624;48.126;11.546;2023-03-20T01:30:46;2.50;;;1.20;;
9178;SDS011;4624;48.126;11.546;2023-03-20T01:33:15;1.17;;;1.17;;
9178;SDS011;4624;48.126;11.546;2023-03-20T01:35:43;1.40;;;1.00;;
9178;SDS011;4624;48.126;11.546;2023-03-20T01:38:12;1.00;;;1.00;;
9178;SDS011;4624;48.126;11.546;2023-03-20T01:40:46;0.90;;;0.90;;
9178;SDS011;4624;48.126;11.546;2023-03-20T01:43:19;1.20;;;1.10;;
9178;SDS011;4624;48.126;11.546;2023-03-20T01:45:49;1.43;;;1.33;;
9178;SDS011;4624;48.126;11.546;2023-03-20T01:48:23;1.33;;;1.13;;
9178;SDS011;4624;48.126;11.546;2023-03-20T01:50:53;1.13;;;1.00;;
9178;SDS011;4624;48.126;11.546;2023-03-20T01:53:20;1.20;;;1.13;;
9178;SDS011;4624;48.126;11.546;2023-03-20T01:55:50;1.13;;;1.03;;
9178;SDS011;4624;48.126;11.546;2023-03-20T01:58:21;1.40;;;1.20;;
9178;SDS011;4624;48.126;11.546;2023-03-20T02:00:53;1.00;;;0.90;;
9178;SDS011;4624;48.126;11.546;2023-03-20T02:03:22;1.57;;;1.13;;
9178;SDS011;4624;48.126;11.546;2023-03-20T02:05:49;1.00;;;1.00;;
9178;SDS011;4624;48.126;11.546;2023-03-20T02:08:18;1.07;;;0.97;;
9178;SDS011;4624;48.126;11.546;2023-03-20T02:10:50;1.50;;;0.90;;
9178;SDS011;4624;48.126;11.546;2023-03-20T02:13:19;1.37;;;1.10;;
9178;SDS011;4624;48.126;11.546;2023-03-20T02:16:01;1.50;;;1.00;;
9178;SDS011;4624;48.126;11.546;2023-03-20T02:18:32;1.10;;;0.90;;
9178;SDS011;4624;48.126;11.546;2023-03-20T02:21:12;0.77;;;0.77;;
9178;SDS011;4624;48.126;11.546;2023-03-20T02:27:08;0.60;;;0.60;;
9178;SDS011;4624;48.126;11.546;2023-03-20T02:29:55;1.50;;;0.70;;
9178;SDS011;4624;48.126;11.546;2023-03-20T02:32:54;0.60;;;0.60;;
9178;SDS011;4624;48.126;11.546;2023-03-20T02:38:52;0.70;;;0.70;;
9178;SDS011;4624;48.126;11.546;2023-03-20T02:41:27;0.70;;;0.70;;
9178;SDS011;4624;48.126;11.546;2023-03-20T02:44:00;0.70;;;0.70;;
9178;SDS011;4624;48.126;11.546;2023-03-20T02:46:34;0.70;;;0.60;;
9178;SDS011;4624;48.126;11.546;2023-03-20T02:49:09;1.73;;;0.70;;
9178;SDS011;4624;48.126;11.546;2023-03-20T02:51:43;1.20;;;0.60;;
9178;SDS011;4624;48.126;11.546;2023-03-20T02:54:23;0.50;;;0.50;;
9178;SDS011;4624;48.126;11.546;2023-03-20T02:56:56;1.57;;;0.77;;
9178;SDS011;4624;48.126;11.546;2023-03-20T02:59:28;0.67;;;0.67;;
9178;SDS011;4624;48.126;11.546;2023-03-20T03:02:02;0.50;;;0.50;;
9178;SDS011;4624;48.126;11.546;2023-03-20T03:04:33;0.60;;;0.60;;
9178;SDS011;4624;48.126;11.546;2023-03-20T03:07:02;0.70;;;0.60;;
9178;SDS011;4624;48.126;11.546;2023-03-20T03:09:34;0.67;;;0.67;;
9178;SDS011;4624;48.126;11.546;2023-03-20T03:12:05;0.60;;;0.60;;
9178;SDS011;4624;48.126;11.546;2023-03-20T03:14:36;0.60;;;0.60;;
9178;SDS011;4624;48.126;11.546;2023-03-20T03:17:05;0.70;;;0.70;;
9178;SDS011;4624;48.126;11.546;2023-03-20T03:19:34;0.70;;;0.70;;
9178;SDS011;4624;48.126;11.546;2023-03-20T03:22:03;2.47;;;0.70;;
9178;SDS011;4624;48.126;11.546;2023-03-20T03:24:32;0.50;;;0.50;;
9178;SDS011;4624;48.126;11.546;2023-03-20T03:27:02;0.80;;;0.57;;
9178;SDS011;4624;48.126;11.546;2023-03-20T03:29:33;1.00;;;0.60;;
9178;SDS011;4624;48.126;11.546;2023-03-20T03:32:04;0.90;;;0.73;;
9178;SDS011;4624;48.126;11.546;2023-03-20T03:34:33;0.70;;;0.70;;
9178;SDS011;4624;48.126;11.546;2023-03-20T03:37:03;1.60;;;0.90;;
9178;SDS011;4624;48.126;11.546;2023-03-20T03:39:36;1.23;;;0.80;;
9178;SDS011;4624;48.126;11.546;2023-03-20T03:42:11;0.80;;;0.80;;
9178;SDS011;4624;48.126;11.546;2023-03-20T03:44:52;0.83;;;0.80;;
9178;SDS011;4624;48.126;11.546;2023-03-20T03:47:23;2.10;;;0.70;;
9178;SDS011;4624;48.126;11.546;2023-03-20T03:49:57;2.50;;;1.10;;
9178;SDS011;4624;48.126;11.546;2023-03-20T03:52:27;0.90;;;0.90;;
9178;SDS011;4624;48.126;11.546;2023-03-20T03:54:58;0.90;;;0.90;;
9178;SDS011;4624;48.126;11.546;2023-03-20T03:57:28;0.80;;;0.80;;
9178;SDS011;4624;48.126;11.546;2023-03-20T03:59:59;0.73;;;0.60;;
9178;SDS011;4624;48.126;11.546;2023-03-20T04:02:30;1.07;;;0.97;;
9178;SDS011;4624;48.126;11.546;2023-03-20T04:04:58;1.03;;;0.90;;
9178;SDS011;4624;48.126;11.546;2023-03-20T04:07:28;0.90;;;0.87;;
9178;SDS011;4624;48.126;11.546;2023-03-20T04:09:55;0.90;;;0.90;;
9178;SDS011;4624;48.126;11.546;2023-03-20T04:12:30;1.00;;;0.87;;
9178;SDS011;4624;48.126;11.546;2023-03-20T04:15:00;1.33;;;1.10;;
9178;SDS011;4624;48.126;11.546;2023-03-20T04:17:27;0.80;;;0.80;;
9178;SDS011;4624;48.126;11.546;2023-03-20T04:19:53;0.80;;;0.80;;
9178;SDS011;4624;48.126;11.546;2023-03-20T04:22:20;1.37;;;0.80;;
9178;SDS011;4624;48.126;11.546;2023-03-20T04:24:47;1.40;;;1.00;;
9178;SDS011;4624;48.126;11.546;2023-03-20T04:27:14;2.30;;;0.90;;
9178;SDS011;4624;48.126;11.546;2023-03-20T04:29:42;2.07;;;1.03;;
9178;SDS011;4624;48.126;11.546;2023-03-20T04:32:09;1.00;;;0.90;;
9178;SDS011;4624;48.126;11.546;2023-03-20T04:34:36;0.70;;;0.67;;
9178;SDS011;4624;48.126;11.546;2023-03-20T04:37:03;1.80;;;0.77;;
9178;SDS011;4624;48.126;11.546;2023-03-20T04:39:32;1.23;;;0.60;;
9178;SDS011;4624;48.126;11.546;2023-03-20T04:41:59;0.70;;;0.70;;
9178;SDS011;4624;48.126;11.546;2023-03-20T04:44:26;1.00;;;0.87;;
9178;SDS011;4624;48.126;11.546;2023-03-20T04:46:54;0.93;;;0.80;;
9178;SDS011;4624;48.126;11.546;2023-03-20T04:49:21;0.70;;;0.63;;
9178;SDS011;4624;48.126;11.546;2023-03-20T04:51:48;0.90;;;0.90;;
9178;SDS011;4624;48.126;11.546;2023-03-20T04:54:15;1.27;;;0.90;;
9178;SDS011;4624;48.126;11.546;2023-03-20T04:56:41;1.00;;;0.60;;
9178;SDS011;4624;48.126;11.546;2023-03-20T04:59:08;0.70;;;0.70;;
9178;SDS011;4624;48.126;11.546;2023-03-20T05:01:35;1.90;;;0.80;;
9178;SDS011;4624;48.126;11.546;2023-03-20T05:04:03;0.80;;;0.63;;
9178;SDS011;4624;48.126;11.546;2023-03-20T05:06:30;0.70;;;0.70;;
9178;SDS011;4624;48.126;11.546;2023-03-20T05:08:57;0.80;;;0.80;;
9178;SDS011;4624;48.126;11.546;2023-03-20T05:11:25;2.00;;;0.97;;
9178;SDS011;4624;48.126;11.546;2023-03-20T05:13:51;0.70;;;0.70;;
9178;SDS011;4624;48.126;11.546;2023-03-20T05:16:18;0.70;;;0.70;;
9178;SDS011;4624;48.126;11.546;2023-03-20T05:18:45;0.93;;;0.93;;
9178;SDS011;4624;48.126;11.546;2023-03-20T05:21:13;0.87;;;0.87;;
9178;SDS011;4624;48.126;11.546;2023-03-20T05:23:40;1.00;;;1.00;;
9178;SDS011;4624;48.126;11.546;2023-03-20T05:26:07;0.83;;;0.83;;
9178;SDS011;4624;48.126;11.546;2023-03-20T05:28:34;0.90;;;0.90;;
9178;SDS011;4624;48.126;11.546;2023-03-20T05:31:02;1.20;;;1.10;;
9178;SDS011;4624;48.126;11.546;2023-03-20T05:33:29;1.40;;;1.30;;
9178;SDS011;4624;48.126;11.546;2023-03-20T05:35:55;1.93;;;1.03;;
9178;SDS011;4624;48.126;11.546;2023-03-20T05:38:24;1.53;;;1.23;;
9178;SDS011;4624;48.126;11.546;2023-03-20T05:40:54;1.67;;;1.40;;
9178;SDS011;4624;48.126;11.546;2023-03-20T05:43:21;1.50;;;1.40;;
9178;SDS011;4624;48.126;11.546;2023-03-20T05:45:48;1.60;;;1.27;;
9178;SDS011;4624;48.126;11.546;2023-03-20T05:48:15;1.63;;;1.50;;
9178;SDS011;4624;48.126;11.546;2023-03-20T05:50:42;1.60;;;1.33;;
9178;SDS011;4624;48.126;11.546;2023-03-20T05:53:09;1.80;;;1.70;;
9178;SDS011;4624;48.126;11.546;2023-03-20T05:55:37;1.73;;;1.63;;
9178;SDS011;4624;48.126;11.546;2023-03-20T05:58:05;1.90;;;1.70;;
9178;SDS011;4624;48.126;11.546;2023-03-20T06:00:32;2.50;;;1.80;;
9178;SDS011;4624;48.126;11.546;2023-03-20T06:02:59;2.43;;;1.73;;
9178;SDS011;4624;48.126;11.546;2023-03-20T06:05:25;2.50;;;2.30;;
9178;SDS011;4624;48.126;11.546;2023-03-20T06:07:52;1.80;;;1.70;;
9178;SDS011;4624;48.126;11.546;2023-03-20T06:10:19;2.30;;;2.10;;
9178;SDS011;4624;48.126;11.546;2023-03-20T06:12:47;2.23;;;2.13;;
9178;SDS011;4624;48.126;11.546;2023-03-20T06:15:14;2.00;;;1.90;;
9178;SDS011;4624;48.126;11.546;2023-03-20T06:17:41;2.53;;;2.33;;
9178;SDS011;4624;48.126;11.546;2023-03-20T06:20:08;2.00;;;1.90;;
9178;SDS011;4624;48.126;11.546;2023-03-20T06:22:36;2.27;;;2.07;;
9178;SDS011;4624;48.126;11.546;2023-03-20T06:25:03;2.43;;;2.23;;
9178;SDS011;4624;48.126;11.546;2023-03-20T06:27:30;2.50;;;2.30;;
9178;SDS011;4624;48.126;11.546;2023-03-20T06:29:58;2.63;;;2.43;;
9178;SDS011;4624;48.126;11.546;2023-03-20T06:32:25;3.03;;;2.83;;
9178;SDS011;4624;48.126;11.546;2023-03-20T06:34:52;2.77;;;2.57;;
9178;SDS011;4624;48.126;11.546;2023-03-20T06:37:19;2.97;;;2.77;;
9178;SDS011;4624;48.126;11.546;2023-03-20T06:39:46;3.27;;;2.97;;
9178;SDS011;4624;48.126;11.546;2023-03-20T06:42:12;3.00;;;2.80;;
9178;SDS011;4624;48.126;11.546;2023-03-20T06:44:39;3.07;;;2.83;;
9178;SDS011;4624;48.126;11.546;2023-03-20T06:47:07;2.80;;;2.60;;
9178;SDS011;4624;48.126;11.546;2023-03-20T06:49:35;2.60;;;2.40;;
9178;SDS011;4624;48.126;11.546;2023-03-20T06:52:01;3.07;;;2.87;;
9178;SDS011;4624;48.126;11.546;2023-03-20T06:54:29;2.73;;;2.53;;
9178;SDS011;4624;48.126;11.546;2023-03-20T06:56:55;3.07;;;2.87;;
9178;SDS011;4624;48.126;11.546;2023-03-20T06:59:22;3.20;;;2.90;;
9178;SDS011;4624;48.126;11.546;2023-03-20T07:01:49;3.07;;;2.87;;
9178;SDS011;4624;48.126;11.546;2023-03-20T07:04:18;2.83;;;2.63;;
9178;SDS011;4624;48.126;11.546;2023-03-20T07:06:44;2.80;;;2.60;;
9178;SDS011;4624;48.126;11.546;2023-03-20T07:09:11;2.93;;;2.73;;
9178;SDS011;4624;48.126;11.546;2023-03-20T07:11:38;3.63;;;2.93;;
9178;SDS011;4624;48.126;11.546;2023-03-20T07:14:05;3.77;;;2.70;;
9178;SDS011;4624;48.126;11.546;2023-03-20T07:16:32;2.70;;;2.50;;
9178;SDS011;4624;48.126;11.546;2023-03-20T07:18:59;3.37;;;2.77;;
9178;SDS011;4624;48.126;11.546;2023-03-20T07:21:27;2.73;;;2.53;;
9178;SDS011;4624;48.126;11.546;2023-03-20T07:23:55;3.17;;;2.80;;
9178;SDS011;4624;48.126;11.546;2023-03-20T07:26:22;3.73;;;2.90;;
9178;SDS011;4624;48.126;11.546;2023-03-20T07:28:48;2.70;;;2.50;;
9178;SDS011;4624;48.126;11.546;2023-03-20T07:31:17;4.07;;;2.60;;
9178;SDS011;4624;48.126;11.546;2023-03-20T07:33:46;3.27;;;2.97;;
9178;SDS011;4624;48.126;11.546;2023-03-20T07:36:12;3.23;;;2.93;;
9178;SDS011;4624;48.126;11.546;2023-03-20T07:38:41;3.37;;;3.07;;
9178;SDS011;4624;48.126;11.546;2023-03-20T07:41:08;3.50;;;2.90;;
9178;SDS011;4624;48.126;11.546;2023-03-20T07:43:34;3.00;;;2.60;;
9178;SDS011;4624;48.126;11.546;2023-03-20T07:46:01;2.60;;;2.40;;
9178;SDS011;4624;48.126;11.546;2023-03-20T07:48:29;3.33;;;3.10;;
9178;SDS011;4624;48.126;11.546;2023-03-20T07:50:55;2.73;;;2.53;;
9178;SDS011;4624;48.126;11.546;2023-03-20T07:53:22;2.27;;;2.07;;
9178;SDS011;4624;48.126;11.546;2023-03-20T07:55:51;2.00;;;1.90;;
9178;SDS011;4624;48.126;11.546;2023-03-20T07:58:17;2.50;;;2.30;;
9178;SDS011;4624;48.126;11.546;2023-03-20T08:00:44;2.50;;;2.30;;
9178;SDS011;4624;48.126;11.546;2023-03-20T08:03:11;2.70;;;2.50;;
9178;SDS011;4624;48.126;11.546;2023-03-20T08:05:38;3.30;;;1.90;;
9178;SDS011;4624;48.126;11.546;2023-03-20T08:08:05;2.60;;;2.20;;
9178;SDS011;4624;48.126;11.546;2023-03-20T08:10:32;2.50;;;2.30;;
9178;SDS011;4624;48.126;11.546;2023-03-20T08:13:00;2.37;;;1.97;;
9178;SDS011;4624;48.126;11.546;2023-03-20T08:15:27;1.93;;;1.83;;
9178;SDS011;4624;48.126;11.546;2023-03-20T08:17:53;2.93;;;2.10;;
9178;SDS011;4624;48.126;11.546;2023-03-20T08:20:22;3.27;;;2.00;;
9178;SDS011;4624;48.126;11.546;2023-03-20T08:22:50;3.10;;;2.20;;
9178;SDS011;4624;48.126;11.546;2023-03-20T08:25:17;2.40;;;2.20;;
9178;SDS011;4624;48.126;11.546;2023-03-20T08:27:43;2.53;;;2.20;;
9178;SDS011;4624;48.126;11.546;2023-03-20T08:30:12;2.20;;;2.00;;
9178;SDS011;4624;48.126;11.546;2023-03-20T08:32:40;2.43;;;2.23;;
9178;SDS011;4624;48.126;11.546;2023-03-20T08:35:07;2.10;;;1.83;;
9178;SDS011;4624;48.126;11.546;2023-03-20T08:37:35;1.90;;;1.80;;
9178;SDS011;4624;48.126;11.546;2023-03-20T08:40:03;2.73;;;1.70;;
9178;SDS011;4624;48.126;11.546;2023-03-20T08:42:31;1.60;;;1.50;;
9178;SDS011;4624;48.126;11.546;2023-03-20T08:44:58;1.77;;;1.67;;
9178;SDS011;4624;48.126;11.546;2023-03-20T08:47:26;2.20;;;1.90;;
9178;SDS011;4624;48.126;11.546;2023-03-20T08:49:53;1.90;;;1.77;;
9178;SDS011;4624;48.126;11.546;2023-03-20T08:52:19;1.90;;;1.80;;
9178;SDS011;4624;48.126;11.546;2023-03-20T08:54:46;1.90;;;1.80;;
9178;SDS011;4624;48.126;11.546;2023-03-20T08:57:13;3.50;;;1.50;;
9178;SDS011;4624;48.126;11.546;2023-03-20T08:59:40;1.60;;;1.50;;
9178;SDS011;4624;48.126;11.546;2023-03-20T09:02:08;1.60;;;1.50;;
9178;SDS011;4624;48.126;11.546;2023-03-20T09:04:37;1.77;;;1.67;;
9178;SDS011;4624;48.126;11.546;2023-03-20T09:07:05;1.50;;;1.40;;
9178;SDS011;4624;48.126;11.546;2023-03-20T09:09:32;2.10;;;1.83;;
9178;SDS011;4624;48.126;11.546;2023-03-20T09:11:58;1.70;;;1.53;;
9178;SDS011;4624;48.126;11.546;2023-03-20T09:14:26;2.60;;;1.90;;
9178;SDS011;4624;48.126;11.546;2023-03-20T09:16:53;1.83;;;1.73;;
9178;SDS011;4624;48.126;11.546;2023-03-20T09:19:20;1.80;;;1.70;;
9178;SDS011;4624;48.126;11.546;2023-03-20T09:21:48;2.53;;;2.33;;
9178;SDS011;4624;48.126;11.546;2023-03-20T09:24:15;2.20;;;2.10;;
9178;SDS011;4624;48.126;11.546;2023-03-20T09:26:41;1.67;;;1.57;;
9178;SDS011;4624;48.126;11.546;2023-03-20T09:29:08;5.90;;;4.53;;
9178;SDS011;4624;48.126;11.546;2023-03-20T09:31:35;3.03;;;2.40;;
9178;SDS011;4624;48.126;11.546;2023-03-20T09:34:02;1.60;;;1.50;;
9178;SDS011;4624;48.126;11.546;2023-03-20T09:36:29;1.77;;;1.40;;
9178;SDS011;4624;48.126;11.546;2023-03-20T09:38:57;1.40;;;1.30;;
9178;SDS011;4624;48.126;11.546;2023-03-20T09:41:25;3.20;;;1.53;;
9178;SDS011;4624;48.126;11.546;2023-03-20T09:44:08;1.20;;;1.20;;
9178;SDS011;4624;48.126;11.546;2023-03-20T09:46:45;1.13;;;1.03;;
9178;SDS011;4624;48.126;11.546;2023-03-20T09:49:21;1.83;;;1.10;;
9178;SDS011;4624;48.126;11.546;2023-03-20T09:51:56;1.40;;;1.13;;
9178;SDS011;4624;48.126;11.546;2023-03-20T09:54:27;2.60;;;2.40;;
9178;SDS011;4624;48.126;11.546;2023-03-20T09:56:57;1.50;;;1.10;;
9178;SDS011;4624;48.126;11.546;2023-03-20T09:59:25;2.80;;;1.47;;
9178;SDS011;4624;48.126;11.546;2023-03-20T10:01:53;1.80;;;1.70;;
9178;SDS011;4624;48.126;11.546;2023-03-20T10:04:22;1.93;;;1.13;;
9178;SDS011;4624;48.126;11.546;2023-03-20T10:06:51;1.50;;;1.30;;
9178;SDS011;4624;48.126;11.546;2023-03-20T10:09:20;1.27;;;1.00;;
9178;SDS011;4624;48.126;11.546;2023-03-20T10:12:02;1.27;;;0.87;;
9178;SDS011;4624;48.126;11.546;2023-03-20T10:14:41;1.00;;;0.80;;
9178;SDS011;4624;48.126;11.546;2023-03-20T10:17:20;0.60;;;0.60;;
9178;SDS011;4624;48.126;11.546;2023-03-20T10:19:58;0.80;;;0.80;;
9178;SDS011;4624;48.126;11.546;2023-03-20T10:22:36;0.70;;;0.70;;
9178;SDS011;4624;48.126;11.546;2023-03-20T10:25:13;0.30;;;0.30;;
9178;SDS011;4624;48.126;11.546;2023-03-20T10:27:48;0.70;;;0.60;;
9178;SDS011;4624;48.126;11.546;2023-03-20T10:30:22;1.20;;;0.60;;
9178;SDS011;4624;48.126;11.546;2023-03-20T10:32:58;0.83;;;0.50;;
9178;SDS011;4624;48.126;11.546;2023-03-20T10:35:35;1.40;;;0.30;;
9178;SDS011;4624;48.126;11.546;2023-03-20T10:38:11;1.07;;;0.73;;
9178;SDS011;4624;48.126;11.546;2023-03-20T10:40:51;0.40;;;0.33;;
9178;SDS011;4624;48.126;11.546;2023-03-20T10:43:23;1.13;;;0.57;;
9178;SDS011;4624;48.126;11.546;2023-03-20T10:45:56;0.70;;;0.33;;
9178;SDS011;4624;48.126;11.546;2023-03-20T10:48:26;0.20;;;0.20;;
9178;SDS011;4624;48.126;11.546;2023-03-20T10:50:57;1.07;;;0.57;;
9178;SDS011;4624;48.126;11.546;2023-03-20T10:53:27;1.33;;;0.43;;
9178;SDS011;4624;48.126;11.546;2023-03-20T10:55:58;0.40;;;0.30;;
9178;SDS011;4624;48.126;11.546;2023-03-20T10:58:30;0.40;;;0.30;;
9178;SDS011;4624;48.126;11.546;2023-03-20T11:01:00;0.77;;;0.50;;
9178;SDS011;4624;48.126;11.546;2023-03-20T11:03:28;0.80;;;0.50;;
9178;SDS011;4624;48.126;11.546;2023-03-20T11:05:57;0.70;;;0.50;;
9178;SDS011;4624;48.126;11.546;2023-03-20T11:08:29;0.40;;;0.30;;
9178;SDS011;4624;48.126;11.546;2023-03-20T11:11:00;0.30;;;0.30;;
9178;SDS011;4624;48.126;11.546;2023-03-20T11:13:30;0.30;;;0.30;;
9178;SDS011;4624;48.126;11.546;2023-03-20T11:16:18;0.40;;;0.37;;
9178;SDS011;4624;48.126;11.546;2023-03-20T11:18:47;0.50;;;0.30;;
9178;SDS011;4624;48.126;11.546;2023-03-20T11:21:17;0.83;;;0.40;;
9178;SDS011;4624;48.126;11.546;2023-03-20T11:23:46;0.80;;;0.40;;
9178;SDS011;4624;48.126;11.546;2023-03-20T11:26:13;0.53;;;0.53;;
9178;SDS011;4624;48.126;11.546;2023-03-20T11:28:49;0.60;;;0.43;;
9178;SDS011;4624;48.126;11.546;2023-03-20T11:31:19;0.40;;;0.40;;
9178;SDS011;4624;48.126;11.546;2023-03-20T11:33:51;0.90;;;0.57;;
9178;SDS011;4624;48.126;11.546;2023-03-20T11:36:26;0.50;;;0.50;;
9178;SDS011;4624;48.126;11.546;2023-03-20T11:38:57;1.00;;;0.40;;
9178;SDS011;4624;48.126;11.546;2023-03-20T11:41:28;1.27;;;0.50;;
9178;SDS011;4624;48.126;11.546;2023-03-20T11:43:56;0.40;;;0.40;;
9178;SDS011;4624;48.126;11.546;2023-03-20T11:46:23;0.40;;;0.30;;
9178;SDS011;4624;48.126;11.546;2023-03-20T11:49:01;0.40;;;0.30;;
9178;SDS011;4624;48.126;11.546;2023-03-20T11:51:30;0.93;;;0.43;;
9178;SDS011;4624;48.126;11.546;2023-03-20T11:54:00;0.63;;;0.30;;
9178;SDS011;4624;48.126;11.546;2023-03-20T11:56:29;1.47;;;0.47;;
9178;SDS011;4624;48.126;11.546;2023-03-20T11:58:59;1.17;;;0.40;;
9178;SDS011;4624;48.126;11.546;2023-03-20T12:01:36;0.30;;;0.30;;
9178;SDS011;4624;48.126;11.546;2023-03-20T12:04:09;0.43;;;0.40;;
9178;SDS011;4624;48.126;11.546;2023-03-20T12:06:42;1.43;;;0.40;;
9178;SDS011;4624;48.126;11.546;2023-03-20T12:09:17;1.03;;;0.50;;
9178;SDS011;4624;48.126;11.546;2023-03-20T12:11:53;0.87;;;0.40;;
9178;SDS011;4624;48.126;11.546;2023-03-20T12:14:27;1.57;;;0.67;;
9178;SDS011;4624;48.126;11.546;2023-03-20T12:17:13;2.00;;;0.50;;
9178;SDS011;4624;48.126;11.546;2023-03-20T12:19:52;1.67;;;0.40;;
9178;SDS011;4624;48.126;11.546;2023-03-20T12:22:22;1.03;;;0.40;;
9178;SDS011;4624;48.126;11.546;2023-03-20T12:24:54;0.50;;;0.50;;
9178;SDS011;4624;48.126;11.546;2023-03-20T12:27:27;0.50;;;0.50;;
9178;SDS011;4624;48.126;11.546;2023-03-20T12:29:59;0.60;;;0.60;;
9178;SDS011;4624;48.126;11.546;2023-03-20T12:32:34;1.00;;;0.50;;
9178;SDS011;4624;48.126;11.546;2023-03-20T12:35:09;0.40;;;0.40;;
9178;SDS011;4624;48.126;11.546;2023-03-20T12:37:38;0.53;;;0.53;;
9178;SDS011;4624;48.126;11.546;2023-03-20T12:40:10;2.50;;;0.83;;
9178;SDS011;4624;48.126;11.546;2023-03-20T12:42:42;0.60;;;0.57;;
9178;SDS011;4624;48.126;11.546;2023-03-20T12:45:22;1.03;;;0.73;;
9178;SDS011;4624;48.126;11.546;2023-03-20T12:50:46;0.63;;;0.50;;
9178;SDS011;4624;48.126;11.546;2023-03-20T12:53:29;0.80;;;0.60;;
9178;SDS011;4624;48.126;11.546;2023-03-20T12:56:05;1.57;;;0.60;;
9178;SDS011;4624;48.126;11.546;2023-03-20T12:58:43;0.67;;;0.67;;
9178;SDS011;4624;48.126;11.546;2023-03-20T13:01:15;1.50;;;0.80;;
9178;SDS011;4624;48.126;11.546;2023-03-20T13:03:53;0.80;;;0.50;;
9178;SDS011;4624;48.126;11.546;2023-03-20T13:06:37;1.67;;;1.20;;
9178;SDS011;4624;48.126;11.546;2023-03-20T13:09:20;0.70;;;0.70;;
9178;SDS011;4624;48.126;11.546;2023-03-20T13:12:11;0.40;;;0.40;;
9178;SDS011;4624;48.126;11.546;2023-03-20T13:14:50;0.40;;;0.40;;
9178;SDS011;4624;48.126;11.546;2023-03-20T13:17:27;1.00;;;0.60;;
9178;SDS011;4624;48.126;11.546;2023-03-20T13:20:04;1.80;;;0.50;;
9178;SDS011;4624;48.126;11.546;2023-03-20T13:26:03;1.93;;;0.43;;
9178;SDS011;4624;48.126;11.546;2023-03-20T13:28:44;0.47;;;0.33;;
9178;SDS011;4624;48.126;11.546;2023-03-20T13:31:26;0.60;;;0.43;;
9178;SDS011;4624;48.126;11.546;2023-03-20T13:34:04;0.87;;;0.30;;
9178;SDS011;4624;48.126;11.546;2023-03-20T13:36:41;0.97;;;0.40;;
9178;SDS011;4624;48.126;11.546;2023-03-20T13:39:17;0.77;;;0.50;;
9178;SDS011;4624;48.126;11.546;2023-03-20T13:41:47;1.47;;;0.57;;
9178;SDS011;4624;48.126;11.546;2023-03-20T13:44:16;0.90;;;0.60;;
9178;SDS011;4624;48.126;11.546;2023-03-20T13:46:45;1.73;;;0.60;;
9178;SDS011;4624;48.126;11.546;2023-03-20T13:49:18;1.53;;;0.90;;
9178;SDS011;4624;48.126;11.546;2023-03-20T13:51:50;0.40;;;0.40;;
9178;SDS011;4624;48.126;11.546;2023-03-20T13:54:30;1.27;;;1.10;;
9178;SDS011;4624;48.126;11.546;2023-03-20T13:57:09;1.33;;;0.90;;
9178;SDS011;4624;48.126;11.546;2023-03-20T13:59:44;1.30;;;0.60;;
9178;SDS011;4624;48.126;11.546;2023-03-20T14:02:23;0.80;;;0.53;;
9178;SDS011;4624;48.126;11.546;2023-03-20T14:05:03;1.47;;;0.43;;
9178;SDS011;4624;48.126;11.546;2023-03-20T14:07:36;0.83;;;0.50;;
9178;SDS011;4624;48.126;11.546;2023-03-20T14:13:01;0.73;;;0.60;;
9178;SDS011;4624;48.126;11.546;2023-03-20T14:15:32;1.23;;;0.57;;
9178;SDS011;4624;48.126;11.546;2023-03-20T14:18:02;0.50;;;0.50;;
9178;SDS011;4624;48.126;11.546;2023-03-20T14:20:32;0.60;;;0.60;;
9178;SDS011;4624;48.126;11.546;2023-03-20T14:23:01;0.77;;;0.50;;
9178;SDS011;4624;48.126;11.546;2023-03-20T14:25:32;0.50;;;0.50;;
9178;SDS011;4624;48.126;11.546;2023-03-20T14:28:05;0.60;;;0.60;;
9178;SDS011;4624;48.126;11.546;2023-03-20T14:30:47;2.13;;;0.50;;
9178;SDS011;4624;48.126;11.546;2023-03-20T14:33:24;0.80;;;0.70;;
9178;SDS011;4624;48.126;11.546;2023-03-20T14:38:56;1.37;;;0.50;;
9178;SDS011;4624;48.126;11.546;2023-03-20T14:41:32;0.43;;;0.43;;
9178;SDS011;4624;48.126;11.546;2023-03-20T14:44:14;0.73;;;0.50;;
9178;SDS011;4624;48.126;11.546;2023-03-20T14:46:50;0.60;;;0.60;;
9178;SDS011;4624;48.126;11.546;2023-03-20T14:49:22;0.47;;;0.47;;
9178;SDS011;4624;48.126;11.546;2023-03-20T14:51:58;0.80;;;0.60;;
9178;SDS011;4624;48.126;11.546;2023-03-20T14:54:35;0.83;;;0.70;;
9178;SDS011;4624;48.126;11.546;2023-03-20T14:57:08;2.00;;;0.87;;
9178;SDS011;4624;48.126;11.546;2023-03-20T14:59:41;0.70;;;0.70;;
9178;SDS011;4624;48.126;11.546;2023-03-20T15:02:17;0.60;;;0.60;;
9178;SDS011;4624;48.126;11.546;2023-03-20T15:04:51;1.07;;;0.77;;
9178;SDS011;4624;48.126;11.546;2023-03-20T15:07:21;1.30;;;0.70;;
9178;SDS011;4624;48.126;11.546;2023-03-20T15:09:51;1.03;;;0.80;;
9178;SDS011;4624;48.126;11.546;2023-03-20T15:12:20;0.90;;;0.57;;
9178;SDS011;4624;48.126;11.546;2023-03-20T15:14:50;0.63;;;0.60;;
9178;SDS011;4624;48.126;11.546;2023-03-20T15:17:20;1.20;;;0.90;;
9178;SDS011;4624;48.126;11.546;2023-03-20T15:19:48;1.07;;;0.70;;
9178;SDS011;4624;48.126;11.546;2023-03-20T15:22:16;2.43;;;0.90;;
9178;SDS011;4624;48.126;11.546;2023-03-20T15:24:54;0.73;;;0.73;;
9178;SDS011;4624;48.126;11.546;2023-03-20T15:27:22;0.73;;;0.57;;
9178;SDS011;4624;48.126;11.546;2023-03-20T15:29:54;0.80;;;0.60;;
9178;SDS011;4624;48.126;11.546;2023-03-20T15:32:23;0.50;;;0.50;;
9178;SDS011;4624;48.126;11.546;2023-03-20T15:34:50;2.87;;;0.50;;
9178;SDS011;4624;48.126;11.546;2023-03-20T15:37:19;1.10;;;1.00;;
9178;SDS011;4624;48.126;11.546;2023-03-20T15:39:49;2.47;;;0.60;;